createdAt,value
2019-05-18T00:01:01.389Z,99.99
2019-05-18T00:01:58.593Z,99.99
2019-05-18T00:02:58.847Z,99.99
2019-05-18T00:03:58.655Z,99.99
2019-05-18T00:04:58.684Z,99.99
2019-05-18T00:05:58.715Z,99.99
2019-05-18T00:06:58.748Z,99.99
2019-05-18T00:07:58.781Z,99.99
2019-05-18T00:08:58.813Z,99.99
2019-05-18T00:09:58.866Z,99.99
2019-05-18T00:10:59.094Z,99.99
2019-05-18T00:11:58.927Z,99.99
2019-05-18T00:12:58.957Z,99.99
2019-05-18T00:14:59.704Z,99.99
2019-05-18T00:15:59.046Z,99.99
2019-05-18T00:16:59.278Z,99.99
2019-05-18T00:17:59.314Z,99.99
2019-05-18T00:18:59.136Z,99.99
2019-05-18T00:20:59.512Z,99.99
2019-05-18T00:21:59.230Z,99.99
2019-05-18T00:22:59.260Z,99.99
2019-05-18T00:23:59.291Z,99.99
2019-05-18T00:24:59.323Z,99.99
2019-05-18T00:25:59.556Z,99.99
2019-05-18T00:27:59.620Z,99.99
2019-05-18T00:28:59.445Z,99.99
2019-05-18T00:29:59.475Z,99.99
2019-05-18T00:30:59.708Z,99.99
2019-05-18T00:31:59.942Z,99.99
2019-05-18T00:33:00.255Z,99.99
2019-05-18T00:35:00.036Z,99.99
2019-05-18T00:35:59.661Z,99.99
2019-05-18T00:36:59.696Z,99.99
2019-05-18T00:37:59.925Z,99.99
2019-05-18T00:41:00.503Z,99.99
2019-05-18T00:43:00.078Z,99.99
2019-05-18T00:46:00.574Z,99.99
2019-05-18T00:47:00.605Z,99.99
2019-05-18T00:48:00.553Z,99.99
2019-05-18T00:49:00.464Z,99.99
2019-05-18T00:50:00.066Z,99.99
2019-05-18T00:51:00.121Z,99.99
2019-05-18T00:52:00.150Z,99.99
2019-05-18T00:53:00.182Z,99.99
2019-05-18T00:57:00.307Z,99.99
2019-05-18T01:00:00.398Z,99.99
2019-05-18T01:01:01.038Z,99.99
2019-05-18T01:02:00.862Z,99.99
2019-05-18T01:04:00.722Z,99.99
2019-05-18T01:05:00.549Z,99.99
2019-05-18T01:06:00.990Z,99.99
2019-05-18T01:08:00.640Z,99.99
2019-05-18T01:10:01.108Z,99.99
2019-05-18T01:11:01.136Z,99.99
2019-05-18T01:13:00.800Z,99.99
2019-05-18T01:14:00.869Z,99.99
2019-05-18T01:15:00.857Z,99.99
2019-05-18T01:16:00.886Z,99.99
2019-05-18T01:17:00.925Z,99.99
2019-05-18T01:18:02.396Z,99.99
2019-05-18T01:19:00.979Z,99.99
2019-05-18T01:21:01.445Z,99.99
2019-05-18T01:22:01.067Z,99.99
2019-05-18T01:23:01.507Z,99.99
2019-05-18T01:25:01.162Z,99.99
2019-05-18T01:26:01.199Z,99.99
2019-05-18T01:27:01.428Z,99.99
2019-05-18T01:28:01.479Z,99.99
2019-05-18T01:29:01.488Z,99.99
2019-05-18T01:30:01.534Z,99.99
2019-05-18T01:32:01.373Z,99.99
2019-05-18T01:33:01.406Z,99.99
2019-05-18T01:35:01.479Z,99.99
2019-05-18T01:37:01.737Z,99.99
2019-05-18T01:38:01.776Z,99.99
2019-05-18T01:39:01.594Z,99.99
2019-05-18T01:40:01.824Z,99.99
2019-05-18T01:42:01.697Z,99.99
2019-05-18T01:43:01.762Z,99.99
2019-05-18T01:44:02.027Z,99.99
2019-05-18T01:45:15.843Z,99.99
2019-05-18T01:46:02.015Z,99.99
2019-05-18T01:47:01.837Z,99.99
2019-05-18T01:48:13.352Z,99.99
2019-05-18T01:49:01.898Z,99.99
2019-05-18T01:50:02.330Z,99.99
2019-05-18T01:51:02.364Z,99.99
2019-05-18T01:52:02.011Z,99.99
2019-05-18T01:54:02.047Z,99.99
2019-05-18T01:55:02.085Z,99.99
2019-05-18T01:56:02.212Z,99.99
2019-05-18T01:57:02.137Z,99.99
2019-05-18T01:58:02.176Z,99.99
2019-05-18T01:59:02.402Z,99.99
2019-05-18T02:01:02.237Z,99.99
2019-05-18T02:02:02.271Z,99.99
2019-05-18T02:03:02.297Z,99.99
2019-05-18T02:04:02.331Z,99.99
2019-05-18T02:05:02.432Z,99.99
2019-05-18T02:06:02.440Z,99.99
2019-05-18T02:07:02.440Z,99.99
2019-05-18T02:08:02.465Z,99.99
2019-05-18T02:09:02.479Z,99.99
2019-05-18T02:10:02.720Z,99.99
2019-05-18T02:11:02.553Z,99.99
2019-05-18T02:12:02.575Z,99.99
2019-05-18T02:13:02.899Z,99.99
2019-05-18T02:14:02.652Z,99.99
2019-05-18T02:15:02.713Z,99.99
2019-05-18T02:16:02.692Z,99.99
2019-05-18T02:17:02.724Z,99.99
2019-05-18T02:18:02.753Z,99.99
2019-05-18T02:19:02.786Z,99.99
2019-05-18T02:20:02.812Z,99.99
2019-05-18T02:21:02.845Z,99.99
2019-05-18T02:22:02.876Z,99.99
2019-05-18T02:23:02.905Z,99.99
2019-05-18T02:24:02.953Z,99.99
2019-05-18T02:25:02.966Z,99.99
2019-05-18T02:26:02.994Z,99.99
2019-05-18T02:27:03.026Z,99.99
2019-05-18T02:28:03.058Z,99.99
2019-05-18T02:29:03.086Z,99.99
2019-05-18T02:30:03.116Z,99.99
2019-05-18T02:31:03.148Z,99.99
2019-05-18T02:32:03.182Z,99.99
2019-05-18T02:33:03.210Z,99.99
2019-05-18T02:34:03.237Z,99.99
2019-05-18T02:35:03.269Z,99.99
2019-05-18T02:36:03.304Z,99.99
2019-05-18T02:37:03.329Z,99.99
2019-05-18T02:38:03.360Z,99.99
2019-05-18T02:39:03.395Z,99.99
2019-05-18T02:40:03.422Z,99.99
2019-05-18T02:41:03.451Z,99.99
2019-05-18T02:42:03.481Z,99.99
2019-05-18T02:43:03.513Z,99.99
2019-05-18T02:44:03.546Z,99.99
2019-05-18T02:45:03.574Z,99.99
2019-05-18T02:46:03.603Z,99.99
2019-05-18T02:47:03.633Z,99.99
2019-05-18T02:48:03.664Z,99.99
2019-05-18T02:49:03.694Z,99.99
2019-05-18T02:50:03.730Z,99.99
2019-05-18T02:51:03.755Z,99.99
2019-05-18T02:52:03.795Z,99.99
2019-05-18T02:53:03.815Z,99.99
2019-05-18T02:54:03.845Z,99.99
2019-05-18T02:55:03.876Z,99.99
2019-05-18T02:56:03.909Z,99.99
2019-05-18T02:57:03.941Z,99.99
2019-05-18T02:58:03.968Z,99.99
2019-05-18T02:59:03.998Z,99.99
2019-05-18T03:00:04.028Z,99.99
2019-05-18T03:01:04.072Z,99.99
2019-05-18T03:02:04.089Z,99.99
2019-05-18T03:03:04.121Z,99.99
2019-05-18T03:04:04.150Z,99.99
2019-05-18T03:05:04.181Z,99.99
2019-05-18T03:06:04.210Z,99.99
2019-05-18T03:07:04.246Z,99.99
2019-05-18T03:08:04.272Z,99.99
2019-05-18T03:09:04.307Z,99.99
2019-05-18T03:10:04.332Z,99.99
2019-05-18T03:11:04.364Z,99.99
2019-05-18T03:12:04.392Z,99.99
2019-05-18T03:13:04.431Z,99.99
2019-05-18T03:14:04.454Z,99.99
2019-05-18T03:15:04.510Z,99.99
2019-05-18T03:16:04.514Z,99.99
2019-05-18T03:17:04.548Z,99.99
2019-05-18T03:18:04.580Z,99.99
2019-05-18T03:19:08.720Z,99.99
2019-05-18T03:20:04.638Z,99.99
2019-05-18T03:21:04.671Z,99.99
2019-05-18T03:22:04.698Z,99.99
2019-05-18T03:23:04.738Z,99.99
2019-05-18T03:24:04.757Z,99.99
2019-05-18T03:25:04.788Z,99.99
2019-05-18T03:26:04.823Z,99.99
2019-05-18T03:27:04.851Z,99.99
2019-05-18T03:28:04.881Z,99.99
2019-05-18T03:29:04.920Z,99.99
2019-05-18T03:30:04.965Z,99.99
2019-05-18T03:31:04.971Z,99.99
2019-05-18T03:32:05.002Z,99.99
2019-05-18T03:33:05.044Z,99.99
2019-05-18T03:34:05.063Z,99.99
2019-05-18T03:35:05.092Z,99.99
2019-05-18T03:36:05.123Z,99.99
2019-05-18T03:37:05.155Z,99.99
2019-05-18T03:38:05.184Z,99.99
2019-05-18T03:39:05.215Z,99.99
2019-05-18T03:40:05.253Z,99.99
2019-05-18T03:41:05.275Z,99.99
2019-05-18T03:42:05.304Z,99.99
2019-05-18T03:43:05.337Z,99.99
2019-05-18T03:44:05.368Z,99.99
2019-05-18T03:45:05.400Z,99.99
2019-05-18T03:46:05.425Z,99.99
2019-05-18T03:47:05.457Z,99.99
2019-05-18T03:48:05.487Z,99.99
2019-05-18T03:49:05.518Z,99.99
2019-05-18T03:50:05.550Z,99.99
2019-05-18T03:51:05.578Z,99.99
2019-05-18T03:52:05.607Z,99.99
2019-05-18T03:53:05.638Z,99.99
2019-05-18T03:54:05.671Z,99.99
2019-05-18T03:55:05.700Z,99.99
2019-05-18T03:56:05.727Z,99.99
2019-05-18T03:57:05.758Z,99.99
2019-05-18T03:58:05.800Z,99.99
2019-05-18T03:59:05.819Z,99.99
2019-05-18T04:00:05.848Z,99.99
2019-05-18T04:01:05.885Z,99.99
2019-05-18T04:02:05.910Z,99.99
2019-05-18T04:03:05.941Z,99.99
2019-05-18T04:04:05.971Z,99.99
2019-05-18T04:05:06.203Z,99.99
2019-05-18T04:06:06.037Z,99.99
2019-05-18T04:07:06.059Z,99.99
2019-05-18T04:08:06.090Z,99.99
2019-05-18T04:09:06.121Z,99.99
2019-05-18T04:10:06.152Z,99.99
2019-05-18T04:11:06.182Z,99.99
2019-05-18T04:12:06.213Z,99.99
2019-05-18T04:13:06.243Z,99.99
2019-05-18T04:14:08.339Z,99.99
2019-05-18T04:15:06.302Z,99.99
2019-05-18T04:16:06.334Z,99.99
2019-05-18T04:17:06.363Z,99.99
2019-05-18T04:18:06.394Z,99.99
2019-05-18T04:19:06.424Z,99.99
2019-05-18T04:20:06.461Z,99.99
2019-05-18T04:21:06.484Z,99.99
2019-05-18T04:22:06.515Z,99.99
2019-05-18T04:23:06.544Z,99.99
2019-05-18T04:24:09.398Z,99.99
2019-05-18T04:25:06.613Z,99.99
2019-05-18T04:26:06.641Z,99.99
2019-05-18T04:27:06.664Z,99.99
2019-05-18T04:28:06.696Z,99.99
2019-05-18T04:29:06.729Z,99.99
2019-05-18T04:30:06.756Z,99.99
2019-05-18T04:31:06.790Z,99.99
2019-05-18T04:32:07.020Z,99.99
2019-05-18T04:34:06.876Z,99.99
2019-05-18T04:35:06.906Z,99.99
2019-05-18T04:36:06.946Z,99.99
2019-05-18T04:37:06.967Z,99.99
2019-05-18T04:38:06.998Z,99.99
2019-05-18T04:39:07.027Z,99.99
2019-05-18T04:40:07.061Z,99.99
2019-05-18T04:41:07.089Z,99.99
2019-05-18T04:42:07.119Z,99.99
2019-05-18T04:43:07.155Z,99.99
2019-05-18T04:44:07.183Z,99.99
2019-05-18T04:45:07.209Z,99.99
2019-05-18T04:46:07.240Z,99.99
2019-05-18T04:47:07.273Z,99.99
2019-05-18T04:48:07.302Z,99.99
2019-05-18T04:49:07.333Z,99.99
2019-05-18T04:50:07.404Z,99.99
2019-05-18T04:51:07.394Z,99.99
2019-05-18T04:52:07.423Z,99.99
2019-05-18T04:53:07.458Z,99.99
2019-05-18T04:54:07.492Z,99.99
2019-05-18T04:55:07.539Z,99.99
2019-05-18T04:56:07.557Z,99.99
2019-05-18T04:57:07.576Z,99.99
2019-05-18T04:58:07.640Z,99.99
2019-05-18T04:59:07.636Z,99.99
2019-05-18T05:00:07.670Z,99.99
2019-05-18T05:02:07.736Z,99.99
2019-05-18T05:03:07.758Z,99.99
2019-05-18T05:05:08.045Z,99.99
2019-05-18T05:06:07.853Z,99.99
2019-05-18T05:07:08.615Z,99.99
2019-05-18T05:08:08.241Z,99.99
2019-05-18T05:09:07.941Z,99.99
2019-05-18T05:10:08.176Z,99.99
2019-05-18T05:11:08.002Z,99.99
2019-05-18T05:12:08.662Z,99.99
2019-05-18T05:13:08.069Z,99.99
2019-05-18T05:14:08.138Z,99.99
2019-05-18T05:15:08.149Z,99.99
2019-05-18T05:16:08.159Z,99.99
2019-05-18T05:18:08.217Z,99.99
2019-05-18T05:19:08.947Z,99.99
2019-05-18T05:20:19.261Z,99.99
2019-05-18T05:21:08.334Z,99.99
2019-05-18T05:22:08.566Z,99.99
2019-05-18T05:23:08.398Z,99.99
2019-05-18T05:26:08.894Z,99.99
2019-05-18T05:28:08.528Z,99.99
2019-05-18T05:29:08.558Z,99.99
2019-05-18T05:30:08.589Z,99.99
2019-05-18T05:31:08.621Z,99.99
2019-05-18T05:32:08.652Z,99.99
2019-05-18T05:33:08.750Z,99.99
2019-05-18T05:34:08.744Z,99.99
2019-05-18T05:36:09.003Z,99.99
2019-05-18T05:37:08.830Z,99.99
2019-05-18T05:38:09.377Z,99.99
2019-05-18T05:39:08.892Z,99.99
2019-05-18T05:40:09.132Z,99.99
2019-05-18T05:41:15.882Z,99.99
2019-05-18T05:43:10.033Z,99.99
2019-05-18T05:46:09.325Z,99.99
2019-05-18T05:47:09.347Z,99.99
2019-05-18T05:51:09.686Z,99.99
2019-05-18T05:52:09.912Z,99.99
2019-05-18T06:07:10.900Z,99.99
2019-05-18T06:10:09.883Z,99.99
2019-05-18T06:11:09.913Z,99.99
2019-05-18T06:19:10.173Z,99.99
2019-05-18T06:20:10.206Z,99.99
2019-05-18T06:22:10.247Z,99.99
2019-05-18T06:23:11.695Z,99.99
2019-05-18T06:24:10.313Z,99.99
2019-05-18T06:25:10.405Z,99.99
2019-05-18T06:26:10.386Z,99.99
2019-05-18T06:27:10.411Z,99.99
2019-05-18T06:28:10.446Z,99.96
2019-05-18T06:29:10.481Z,99.99
2019-05-18T06:30:10.510Z,98.91
2019-05-18T06:31:10.546Z,99.58
2019-05-18T06:32:10.577Z,99.48
2019-05-18T06:33:10.661Z,99.10
2019-05-18T06:34:10.650Z,99.01
2019-05-18T06:35:10.677Z,98.81
2019-05-18T06:36:10.837Z,99.01
2019-05-18T06:37:10.743Z,98.43
2019-05-18T06:38:10.777Z,97.14
2019-05-18T06:39:10.809Z,97.52
2019-05-18T06:40:10.937Z,97.61
2019-05-18T06:41:11.484Z,98.19
2019-05-18T06:42:11.077Z,97.04
2019-05-18T06:43:10.944Z,96.42
2019-05-18T06:44:10.977Z,96.42
2019-05-18T06:45:11.017Z,95.51
2019-05-18T06:46:11.043Z,96.18
2019-05-18T06:47:11.080Z,96.37
2019-05-18T06:48:11.524Z,95.75
2019-05-18T06:49:11.146Z,95.46
2019-05-18T06:50:13.014Z,95.26
2019-05-18T06:51:11.214Z,94.31
2019-05-18T06:52:11.251Z,94.02
2019-05-18T06:53:11.282Z,94.02
2019-05-18T06:54:11.323Z,93.20
2019-05-18T06:55:11.349Z,93.06
2019-05-18T06:56:11.384Z,92.96
2019-05-18T06:57:11.420Z,94.02
2019-05-18T06:58:11.452Z,94.59
2019-05-18T06:59:11.489Z,94.59
2019-05-18T07:00:11.528Z,93.44
2019-05-18T07:03:11.850Z,92.86
2019-05-18T07:04:11.659Z,93.06
2019-05-18T07:05:11.923Z,92.82
2019-05-18T07:06:11.953Z,93.63
2019-05-18T07:07:11.783Z,95.36
2019-05-18T07:08:12.019Z,93.54
2019-05-18T07:09:14.133Z,94.88
2019-05-18T07:10:11.890Z,94.98
2019-05-18T07:11:11.927Z,94.21
2019-05-18T07:13:11.968Z,94.02
2019-05-18T07:14:24.920Z,93.06
2019-05-18T07:15:12.060Z,93.44
2019-05-18T07:17:12.136Z,92.77
2019-05-18T07:19:12.201Z,93.01
2019-05-18T07:21:22.017Z,91.76
2019-05-18T07:24:12.572Z,90.22
2019-05-18T07:25:12.409Z,90.80
2019-05-18T07:26:12.481Z,90.42
2019-05-18T07:27:12.677Z,89.98
2019-05-18T07:28:12.515Z,91.04
2019-05-18T07:29:12.597Z,91.04
2019-05-18T07:33:12.690Z,90.46
2019-05-18T07:43:38.895Z,90.99
2019-05-18T07:44:39.404Z,89.93
2019-05-18T07:45:38.928Z,89.50
2019-05-18T07:46:39.163Z,90.08
2019-05-18T07:47:39.001Z,91.13
2019-05-18T07:48:39.035Z,91.81
2019-05-18T07:51:39.420Z,89.83
2019-05-18T07:52:39.174Z,89.54
2019-05-18T07:53:39.417Z,89.26
2019-05-18T07:54:39.553Z,89.64
2019-05-18T07:55:39.485Z,88.78
2019-05-18T07:56:39.354Z,89.64
2019-05-18T07:58:39.590Z,90.66
2019-05-18T08:02:40.345Z,90.75
2019-05-18T08:33:40.641Z,87.33
2019-05-18T08:37:41.268Z,84.16
2019-05-18T08:38:41.026Z,84.44
2019-05-18T08:42:40.962Z,84.77
2019-05-18T08:43:40.998Z,83.52
2019-05-18T08:44:41.033Z,82.70
2019-05-18T08:45:41.074Z,83.28
2019-05-18T08:46:41.107Z,83.04
2019-05-18T08:47:41.120Z,82.50
2019-05-18T08:48:41.160Z,81.48
2019-05-18T08:49:41.194Z,81.20
2019-05-18T08:50:41.229Z,81.20
2019-05-18T08:51:41.266Z,82.35
2019-05-18T08:52:41.303Z,81.10
2019-05-18T08:53:41.391Z,80.33
2019-05-18T08:54:41.376Z,82.02
2019-05-18T08:56:41.457Z,80.52
2019-05-18T08:57:41.510Z,80.46
2019-05-18T08:58:41.552Z,80.43
2019-05-18T08:59:41.563Z,80.33
2019-05-18T09:00:41.602Z,80.91
2019-05-18T09:01:41.646Z,81.20
2019-05-18T09:02:41.673Z,83.18
2019-05-18T09:03:41.709Z,82.75
2019-05-18T09:04:41.747Z,84.10
2019-05-18T09:05:41.811Z,84.10
2019-05-18T09:06:41.822Z,83.62
2019-05-18T09:07:41.858Z,84.00
2019-05-18T09:08:41.895Z,84.29
2019-05-18T09:09:41.934Z,85.40
2019-05-18T09:10:42.197Z,85.50
2019-05-18T09:11:42.007Z,84.48
2019-05-18T09:12:42.043Z,84.67
2019-05-18T09:13:42.103Z,85.39
2019-05-18T09:14:42.116Z,83.03
2019-05-18T09:16:42.196Z,80.18
2019-05-18T09:17:42.228Z,79.16
2019-05-18T09:18:42.264Z,78.33
2019-05-18T09:19:42.403Z,77.26
2019-05-18T09:20:42.339Z,76.92
2019-05-18T09:21:42.377Z,77.01
2019-05-18T09:22:42.415Z,77.07
2019-05-18T09:23:42.452Z,76.59
2019-05-18T09:24:42.490Z,77.07
2019-05-18T09:25:42.528Z,76.88
2019-05-18T09:26:42.562Z,77.42
2019-05-18T09:27:42.599Z,78.15
2019-05-18T09:28:42.650Z,79.75
2019-05-18T09:29:42.675Z,78.83
2019-05-18T09:30:42.712Z,79.54
2019-05-18T09:31:42.749Z,78.38
2019-05-18T09:32:42.787Z,78.09
2019-05-18T09:33:42.825Z,78.38
2019-05-18T09:34:42.861Z,78.19
2019-05-18T09:35:42.900Z,78.67
2019-05-18T09:36:42.937Z,77.23
2019-05-18T09:37:42.974Z,76.30
2019-05-18T09:38:43.012Z,76.59
2019-05-18T09:39:43.049Z,76.40
2019-05-18T09:40:43.088Z,76.01
2019-05-18T09:41:43.125Z,76.59
2019-05-18T09:42:43.161Z,77.07
2019-05-18T09:43:43.199Z,76.20
2019-05-18T09:44:43.236Z,77.65
2019-05-18T09:45:43.274Z,78.23
2019-05-18T09:46:43.311Z,78.58
2019-05-18T09:47:43.349Z,77.76
2019-05-18T09:48:43.386Z,79.31
2019-05-18T09:49:43.425Z,79.85
2019-05-18T09:50:43.462Z,79.85
2019-05-18T09:51:43.725Z,79.98
2019-05-18T09:52:45.758Z,79.31
2019-05-18T09:53:51.046Z,78.92
2019-05-18T09:54:43.613Z,80.04
2019-05-18T09:55:43.687Z,79.98
2019-05-18T09:56:43.687Z,79.79
2019-05-18T09:57:43.755Z,79.54
2019-05-18T09:58:43.761Z,78.86
2019-05-18T09:59:43.799Z,79.41
2019-05-18T10:00:43.836Z,80.46
2019-05-18T10:01:43.874Z,80.85
2019-05-18T10:02:43.912Z,80.27
2019-05-18T10:03:43.950Z,80.08
2019-05-18T10:04:43.990Z,79.74
2019-05-18T10:05:44.049Z,79.35
2019-05-18T10:06:44.307Z,79.83
2019-05-18T10:07:44.124Z,78.86
2019-05-18T10:08:44.139Z,78.81
2019-05-18T10:09:44.178Z,77.75
2019-05-18T10:10:44.215Z,78.42
2019-05-18T10:11:44.252Z,78.71
2019-05-18T10:12:44.390Z,80.12
2019-05-18T10:13:44.329Z,79.44
2019-05-18T10:14:44.367Z,77.75
2019-05-18T10:15:44.404Z,77.65
2019-05-18T10:16:44.445Z,76.05
2019-05-18T10:17:44.482Z,74.35
2019-05-18T10:18:44.519Z,73.42
2019-05-18T10:19:44.563Z,73.32
2019-05-18T10:20:44.596Z,72.26
2019-05-18T10:21:44.635Z,73.42
2019-05-18T10:22:55.552Z,73.93
2019-05-18T10:23:44.712Z,76.59
2019-05-18T10:24:44.755Z,76.20
2019-05-18T10:25:44.791Z,76.59
2019-05-18T10:26:44.829Z,76.50
2019-05-18T10:27:44.868Z,76.53
2019-05-18T10:28:44.932Z,77.51
2019-05-18T10:29:46.737Z,77.61
2019-05-18T10:30:44.983Z,76.93
2019-05-18T10:31:45.022Z,76.68
2019-05-18T10:32:45.069Z,75.51
2019-05-18T10:33:45.100Z,74.96
2019-05-18T10:34:45.138Z,73.26
2019-05-18T10:35:45.177Z,72.30
2019-05-18T10:36:45.217Z,71.36
2019-05-18T10:37:45.255Z,70.88
2019-05-18T10:38:45.294Z,69.95
2019-05-18T10:39:45.333Z,68.88
2019-05-18T10:40:45.381Z,68.05
2019-05-18T10:41:45.411Z,67.69
2019-05-18T10:42:45.451Z,67.66
2019-05-18T10:43:46.845Z,66.50
2019-05-18T10:44:45.528Z,66.40
2019-05-18T10:45:45.569Z,66.37
2019-05-18T10:46:45.607Z,67.79
2019-05-18T10:47:45.646Z,68.08
2019-05-18T10:48:45.685Z,67.72
2019-05-18T10:49:45.727Z,66.60
2019-05-18T10:50:45.763Z,66.78
2019-05-18T10:51:45.807Z,66.30
2019-05-18T10:52:45.842Z,66.53
2019-05-18T10:53:45.883Z,66.40
2019-05-18T10:54:45.923Z,66.05
2019-05-18T10:55:45.961Z,66.53
2019-05-18T10:56:46.002Z,65.56
2019-05-18T10:57:46.039Z,65.89
2019-05-18T10:58:46.095Z,64.34
2019-05-18T10:59:46.119Z,63.40
2019-05-18T11:00:46.160Z,63.43
2019-05-18T11:01:46.202Z,63.07
2019-05-18T11:02:46.241Z,64.56
2019-05-18T11:03:46.281Z,63.62
2019-05-18T11:04:46.322Z,63.62
2019-05-18T11:05:46.365Z,63.20
2019-05-18T11:06:46.404Z,63.49
2019-05-18T11:07:46.446Z,62.13
2019-05-18T11:09:49.959Z,60.51
2019-05-18T11:10:46.671Z,59.83
2019-05-18T11:11:46.611Z,59.59
2019-05-18T11:12:46.654Z,59.86
2019-05-18T11:13:46.697Z,59.18
2019-05-18T11:14:46.736Z,59.76
2019-05-18T11:15:46.781Z,59.86
2019-05-18T11:16:46.821Z,60.51
2019-05-18T11:17:46.866Z,60.64
2019-05-18T11:18:46.907Z,59.59
2019-05-18T11:19:46.951Z,58.07
2019-05-18T11:20:46.993Z,57.42
2019-05-18T11:21:47.035Z,57.39
2019-05-18T11:22:47.080Z,57.00
2019-05-18T11:23:48.046Z,58.26
2019-05-18T11:24:47.165Z,57.68
2019-05-18T11:25:47.211Z,57.65
2019-05-18T11:26:47.257Z,59.95
2019-05-18T11:27:47.347Z,59.41
2019-05-18T11:28:47.340Z,60.12
2019-05-18T11:29:47.384Z,60.68
2019-05-18T11:30:47.428Z,60.41
2019-05-18T11:31:47.472Z,60.35
2019-05-18T11:32:47.515Z,60.77
2019-05-18T11:33:47.559Z,62.88
2019-05-18T11:34:47.603Z,62.68
2019-05-18T11:35:47.647Z,63.91
2019-05-18T11:36:47.694Z,63.17
2019-05-18T11:37:47.752Z,64.04
2019-05-18T11:38:47.780Z,63.88
2019-05-18T11:39:47.825Z,63.88
2019-05-18T11:40:47.872Z,66.66
2019-05-18T11:41:47.965Z,64.75
2019-05-18T11:42:47.957Z,61.25
2019-05-18T11:43:48.001Z,59.59
2019-05-18T11:44:48.045Z,58.98
2019-05-18T11:45:48.087Z,61.29
2019-05-18T11:46:48.131Z,63.78
2019-05-18T11:47:48.177Z,63.88
2019-05-18T11:48:48.219Z,64.53
2019-05-18T11:49:48.267Z,64.56
2019-05-18T11:50:48.306Z,65.20
2019-05-18T11:51:48.351Z,64.92
2019-05-18T11:52:48.397Z,65.50
2019-05-18T11:53:57.840Z,65.40
2019-05-18T11:54:48.481Z,65.82
2019-05-18T11:55:48.535Z,64.53
2019-05-18T11:56:48.625Z,65.85
2019-05-18T11:57:48.608Z,67.27
2019-05-18T11:58:48.652Z,67.85
2019-05-18T11:59:48.693Z,67.40
2019-05-18T12:00:48.736Z,64.85
2019-05-18T12:01:51.604Z,63.72
2019-05-18T12:02:48.823Z,62.98
2019-05-18T12:03:48.862Z,61.54
2019-05-18T12:04:48.934Z,61.12
2019-05-18T12:05:48.948Z,59.99
2019-05-18T12:06:48.996Z,57.93
2019-05-18T12:07:49.032Z,55.82
2019-05-18T12:08:49.076Z,54.38
2019-05-18T12:09:49.118Z,54.24
2019-05-18T12:10:49.161Z,53.17
2019-05-18T12:11:49.432Z,54.38
2019-05-18T12:12:49.247Z,57.15
2019-05-18T12:13:49.292Z,56.45
2019-05-18T12:14:49.335Z,56.57
2019-05-18T12:15:49.379Z,56.67
2019-05-18T12:16:49.424Z,57.00
2019-05-18T12:17:49.470Z,57.59
2019-05-18T12:18:49.513Z,58.07
2019-05-18T12:19:49.570Z,57.71
2019-05-18T12:20:49.604Z,55.52
2019-05-18T12:21:52.773Z,55.69
2019-05-18T12:22:49.694Z,56.99
2019-05-18T12:23:49.742Z,56.01
2019-05-18T12:24:49.787Z,55.04
2019-05-18T12:25:50.844Z,55.33
2019-05-18T12:26:49.928Z,55.26
2019-05-18T12:27:49.962Z,53.95
2019-05-18T12:28:50.300Z,53.36
2019-05-18T12:29:50.018Z,53.39
2019-05-18T12:30:50.066Z,53.15
2019-05-18T12:31:50.109Z,50.76
2019-05-18T12:32:50.163Z,50.83
2019-05-18T12:33:50.230Z,51.66
2019-05-18T12:34:50.251Z,54.05
2019-05-18T12:35:50.298Z,53.13
2019-05-18T12:36:50.347Z,52.29
2019-05-18T12:37:50.397Z,50.85
2019-05-18T12:38:51.452Z,51.27
2019-05-18T12:39:50.491Z,49.99
2019-05-18T12:40:50.540Z,49.58
2019-05-18T12:41:50.586Z,50.37
2019-05-18T12:42:50.639Z,50.98
2019-05-18T12:43:50.682Z,52.54
2019-05-18T12:44:50.730Z,53.11
2019-05-18T12:45:50.781Z,53.07
2019-05-18T12:46:50.854Z,54.11
2019-05-18T12:47:50.876Z,53.66
2019-05-18T12:48:50.971Z,53.85
2019-05-18T12:50:51.018Z,55.60
2019-05-18T12:51:51.067Z,55.52
2019-05-18T12:52:51.856Z,55.79
2019-05-18T12:53:51.196Z,55.82
2019-05-18T12:54:51.215Z,55.09
2019-05-18T12:55:51.260Z,56.43
2019-05-18T12:56:51.533Z,55.76
2019-05-18T12:57:51.358Z,56.84
2019-05-18T12:58:51.426Z,58.40
2019-05-18T12:59:51.455Z,59.64
2019-05-18T13:00:51.500Z,59.21
2019-05-18T13:01:51.547Z,59.21
2019-05-18T13:02:51.593Z,58.53
2019-05-18T13:03:51.639Z,57.78
2019-05-18T13:04:51.687Z,59.11
2019-05-18T13:05:51.735Z,60.12
2019-05-18T13:06:51.778Z,61.35
2019-05-18T13:07:51.826Z,62.29
2019-05-18T13:08:51.871Z,63.69
2019-05-18T13:09:51.917Z,65.17
2019-05-18T13:10:51.962Z,64.79
2019-05-18T13:11:52.008Z,65.50
2019-05-18T13:12:55.060Z,63.91
2019-05-18T13:13:52.121Z,63.72
2019-05-18T13:14:52.262Z,64.01
2019-05-18T13:15:52.188Z,63.82
2019-05-18T13:16:52.231Z,63.07
2019-05-18T13:18:52.320Z,62.78
2019-05-18T13:19:52.446Z,63.91
2019-05-18T13:20:52.409Z,65.43
2019-05-18T13:21:52.474Z,65.72
2019-05-18T13:22:52.517Z,64.75
2019-05-18T13:23:53.144Z,64.85
2019-05-18T13:24:52.582Z,64.92
2019-05-18T13:25:52.625Z,65.79
2019-05-18T13:26:52.667Z,66.17
2019-05-18T13:27:52.708Z,66.05
2019-05-18T13:28:52.760Z,66.43
2019-05-18T13:29:52.795Z,66.53
2019-05-18T13:30:52.836Z,67.88
2019-05-18T13:31:52.877Z,67.66
2019-05-18T13:32:52.924Z,67.95
2019-05-18T13:33:52.961Z,68.33
2019-05-18T13:34:53.006Z,69.24
2019-05-18T13:35:53.044Z,71.52
2019-05-18T13:36:53.087Z,72.30
2019-05-18T13:37:53.148Z,72.26
2019-05-18T13:38:53.394Z,72.26
2019-05-18T13:40:53.249Z,74.35
2019-05-18T13:41:53.336Z,74.12
2019-05-18T13:42:53.341Z,74.99
2019-05-18T13:43:54.791Z,75.67
2019-05-18T13:44:53.414Z,75.47
2019-05-18T13:45:56.087Z,76.24
2019-05-18T13:46:53.488Z,76.01
2019-05-18T13:47:53.529Z,77.07
2019-05-18T13:48:53.586Z,77.17
2019-05-18T13:49:53.605Z,76.40
2019-05-18T13:50:53.646Z,75.53
2019-05-18T13:51:53.682Z,75.53
2019-05-18T13:52:53.931Z,76.40
2019-05-18T13:53:53.760Z,75.55
2019-05-18T13:55:03.506Z,76.48
2019-05-18T13:55:53.835Z,78.03
2019-05-18T13:56:53.874Z,80.40
2019-05-18T13:57:53.911Z,82.23
2019-05-18T13:58:53.949Z,83.44
2019-05-18T13:59:53.987Z,82.86
2019-05-18T14:00:55.034Z,82.10
2019-05-18T14:01:55.106Z,85.75
2019-05-18T14:02:54.098Z,86.05
2019-05-18T14:03:54.134Z,87.77
2019-05-18T14:04:54.173Z,90.13
2019-05-18T14:05:54.231Z,93.39
2019-05-18T14:06:54.243Z,95.89
2019-05-18T14:07:54.280Z,97.28
2019-05-18T14:08:54.320Z,99.10
2019-05-18T14:09:54.351Z,99.99
2019-05-18T14:10:54.385Z,99.99
2019-05-18T14:11:54.421Z,99.99
2019-05-18T14:13:54.491Z,99.99
2019-05-18T14:14:54.525Z,99.99
2019-05-18T14:15:54.586Z,99.99
2019-05-18T14:16:54.698Z,99.99
2019-05-18T14:17:54.656Z,99.99
2019-05-18T14:18:54.895Z,99.99
2019-05-18T14:19:54.709Z,99.99
2019-05-18T14:20:54.762Z,99.99
2019-05-18T14:21:54.801Z,99.99
2019-05-18T14:22:54.832Z,99.99
2019-05-18T14:23:54.844Z,99.99
2019-05-18T14:24:54.891Z,99.99
2019-05-18T14:25:54.932Z,99.99
2019-05-18T14:26:54.939Z,99.99
2019-05-18T14:27:55.001Z,99.99
2019-05-18T14:28:55.034Z,99.99
2019-05-18T14:29:55.265Z,99.99
2019-05-18T14:30:55.908Z,99.99
2019-05-18T14:38:01.807Z,99.99
2019-05-18T14:38:58.810Z,99.99
2019-05-18T14:40:55.744Z,99.99
2019-05-18T14:44:36.981Z,99.99
2019-05-18T14:51:56.298Z,99.99
2019-05-18T14:55:55.824Z,99.99
2019-05-18T15:01:33.221Z,99.99
2019-05-18T15:02:33.252Z,99.99
2019-05-18T15:03:33.715Z,99.99
2019-05-18T15:04:33.320Z,99.99
2019-05-18T15:06:38.296Z,99.99
2019-05-18T15:08:36.885Z,99.99
2019-05-18T15:10:38.751Z,99.99
2019-05-18T15:12:03.065Z,99.99
2019-05-18T15:12:33.586Z,99.99
2019-05-18T15:56:05.278Z,99.99
2019-05-18T16:05:27.611Z,99.99
2019-05-18T16:08:26.069Z,99.99
2019-05-18T16:09:26.100Z,99.99
2019-05-18T16:13:26.237Z,99.99
2019-05-18T17:17:54.295Z,99.99
2019-05-18T17:18:54.326Z,99.99
2019-05-18T17:23:54.570Z,99.99
2019-05-18T17:24:54.990Z,99.99
2019-05-18T17:28:54.639Z,99.99
2019-05-18T17:30:52.281Z,99.99
2019-05-18T17:34:53.531Z,99.99
2019-05-18T17:36:00.253Z,99.99
2019-05-18T17:36:52.799Z,99.99
2019-05-18T17:37:52.493Z,99.99
2019-05-18T17:42:25.263Z,99.99
2019-05-18T17:47:29.381Z,99.99
2019-05-18T17:50:25.759Z,99.99
2019-05-18T17:51:25.896Z,99.99
2019-05-18T17:53:25.653Z,99.99
2019-05-18T17:54:25.666Z,99.99